Etusivu
METAR-TAF:

METAR-TAF

Lentoasemat :

Shijiazhuang, Kiina

Leveyspiiri: 38-16-51N, Pituuspiiri: 114-41-48E, korkeus merenpinnasta: 233 m

Tämänhetkinen sää

Tämä raportti tehtiin 1 tunti ja 9 minuuttia sitten, kello 17.00 UTC
Tuuli 2 kn eri suunnista
Lämpötila 8°C
Kosteus 87%
Ilmanpaine 1009 hPa
Näkyvyys 10 km tai enemmän
ei pilviä alle 1500 m:ssä eikä cumulonimbus-pilviä

METAR: ZBSJ 231700Z VRB01MPS CAVOK 08/06 Q1009 NOSIG

Aika: 02:09 (18:09 UTC)

Sääennuste

Tämä raportti tehtiin 3 tuntia ja 2 minuuttia sitten, kello 15.07 UTC
Ennuste voimassa 23. päivästä klo 18 UTC - 24. päivään klo 18 UTC
Tuuli 6 kn pohjoisen/luoteesta
Näkyvyys: 5000 m
usvaa,

TAF: ZBSJ 231507Z 2318/2418 33003MPS 5000 HZ NSC TX28/2407Z TN08/2322Z

Säähavainnot ja -ennusteet yli 4000 lentoasemalta (METAR- ja TAF-raportit).

Käytössä olevat sääasemat on merkitty karttaan keltaisilla ja punaisilla pisteillä.

Aseta hiiri pisteen päälle nähdäksesi sääaseman nimen.

Klikkaa sitten nähdäksesi säähavainnot ja -ennusteet.

Kartan vaihtaminen: klikkaa mustalla rastilla varustettuja vihreitä pisteitä, niin voit zoomata sisään; viivalla varustettua vihreää pistettä, niin voit zoomata ulos tai vihreitä nuolia, niin pääset viereisille kartoille.


METAR-TAF: